Urandangie, Australia
Current Conditions -  °F | °C
As of 5:30 AM on Sunday 26 Oct 2014 (Local Time) from YBMA Reporting Station
Clear Clear  
Wind Chill: 73°   Ceiling: Unl
Heat Index: 73°   Visibility: 6mi
Dew Point: 37°   Wind: 5mph
Humidity: 27%   Direction: 360°N
Pressure: 29.97"   Gusts: NA
Location:  21.6°S, 138.3°E
Report Text: YBMA 251930Z AUTO 36004KT 9999 // NCD 23/03 Q1015
Loading
Personal Weather Stations






























Interactive Weather Map
Tropical Storm Tracking
New forecast layout! Learn more

10-Day Weather Forecast

Advertisements
Track Severe Weather on mobile